Weather at Podgorica Airport / Podgorica Golubovci Airbase

Public forecast

Using degrees Celsius for public forecast. Weather courtesy of forecast.io.

Current aviation weather report (METAR) for Podgorica Airport / Podgorica Golubovci Airbase

Retrieved 2022/06/24 21:00 UTC (1 hour ago):

LYPG 242100Z 22006KT CAVOK 26/17 Q1012 NOSIG

Aviation forecast (TAF) for Podgorica Airport / Podgorica Golubovci Airbase

Forecast is more than 6 hours old.

Retrieved 2022/06/24 12:21 UTC (10 hours ago):

TAF COR LYPG 241100Z 2412/2512 16007KT 9999 SCT040 TX33/2414Z TN21/2503Z PROB40 TEMPO 2412/2418 VRB15G25KT 5000 TSRA FEW033CB BKN040